sensor_id;sensor_type;location;lat;lon;timestamp;pressure;altitude;pressure_sealevel;temperature;humidity
78625;BME280;67944;0.000;0.000;2023-04-24T00:00:12;99546.53;;;22.17;36.78
78625;BME280;67944;0.000;0.000;2023-04-24T00:02:39;99536.94;;;22.16;36.81
78625;BME280;67944;0.000;0.000;2023-04-24T00:05:05;99542.25;;;22.16;36.77
78625;BME280;67944;0.000;0.000;2023-04-24T00:07:31;99534.28;;;22.16;36.47
78625;BME280;67944;0.000;0.000;2023-04-24T00:09:57;99538.56;;;22.17;36.78
78625;BME280;67944;0.000;0.000;2023-04-24T00:12:23;99535.91;;;22.17;36.90
78625;BME280;67944;0.000;0.000;2023-04-24T00:14:49;99533.88;;;22.19;36.78
78625;BME280;67944;0.000;0.000;2023-04-24T00:17:15;99538.16;;;22.20;36.77
78625;BME280;67944;0.000;0.000;2023-04-24T00:19:40;99527.53;;;22.20;36.83
78625;BME280;67944;0.000;0.000;2023-04-24T00:22:06;99531.81;;;22.21;37.21
78625;BME280;67944;0.000;0.000;2023-04-24T00:24:31;99526.50;;;22.21;36.62
78625;BME280;67944;0.000;0.000;2023-04-24T00:26:57;99521.22;;;22.21;36.57
78625;BME280;67944;0.000;0.000;2023-04-24T00:29:22;99524.47;;;22.23;37.02
78625;BME280;67944;0.000;0.000;2023-04-24T00:31:48;99522.84;;;22.22;36.77
78625;BME280;67944;0.000;0.000;2023-04-24T00:34:13;99519.97;;;22.24;36.69
78625;BME280;67944;0.000;0.000;2023-04-24T00:36:39;99521.59;;;22.25;36.22
78625;BME280;67944;0.000;0.000;2023-04-24T00:39:05;99516.09;;;22.27;36.60
78625;BME280;67944;0.000;0.000;2023-04-24T00:41:34;99518.31;;;22.30;36.75
78625;BME280;67944;0.000;0.000;2023-04-24T00:44:00;99516.22;;;22.32;36.75
78625;BME280;67944;0.000;0.000;2023-04-24T00:46:25;99503.56;;;22.34;36.64
78625;BME280;67944;0.000;0.000;2023-04-24T00:48:51;99502.53;;;22.35;36.64
78625;BME280;67944;0.000;0.000;2023-04-24T00:51:17;99505.78;;;22.37;36.58
78625;BME280;67944;0.000;0.000;2023-04-24T00:53:43;99505.38;;;22.40;36.78
78625;BME280;67944;0.000;0.000;2023-04-24T00:56:09;99500.66;;;22.42;36.80
78625;BME280;67944;0.000;0.000;2023-04-24T00:58:35;99506.56;;;22.44;36.66
78625;BME280;67944;0.000;0.000;2023-04-24T01:01:01;99504.50;;;22.46;36.45
78625;BME280;67944;0.000;0.000;2023-04-24T01:03:30;99506.75;;;22.49;36.53
78625;BME280;67944;0.000;0.000;2023-04-24T01:05:57;99494.06;;;22.51;36.56
78625;BME280;67944;0.000;0.000;2023-04-24T01:08:24;99495.47;;;22.53;36.70
78625;BME280;67944;0.000;0.000;2023-04-24T01:10:53;99492.38;;;22.56;36.30
78625;BME280;67944;0.000;0.000;2023-04-24T01:13:19;99500.94;;;22.58;36.68
78625;BME280;67944;0.000;0.000;2023-04-24T01:15:46;99499.69;;;22.61;36.45
78625;BME280;67944;0.000;0.000;2023-04-24T01:18:13;99500.28;;;22.63;36.39
78625;BME280;67944;0.000;0.000;2023-04-24T01:20:40;99501.69;;;22.66;36.42
78625;BME280;67944;0.000;0.000;2023-04-24T01:23:07;99503.13;;;22.68;36.24
78625;BME280;67944;0.000;0.000;2023-04-24T01:25:33;99506.38;;;22.70;36.51
78625;BME280;67944;0.000;0.000;2023-04-24T01:27:59;99505.13;;;22.73;36.30
78625;BME280;67944;0.000;0.000;2023-04-24T01:30:25;99509.97;;;22.76;35.84
78625;BME280;67944;0.000;0.000;2023-04-24T01:32:51;99506.50;;;22.75;36.23
78625;BME280;67944;0.000;0.000;2023-04-24T01:35:17;99517.53;;;22.79;36.11
78625;BME280;67944;0.000;0.000;2023-04-24T01:37:43;99508.53;;;22.80;36.19
78625;BME280;67944;0.000;0.000;2023-04-24T01:40:09;99499.56;;;22.81;35.99
78625;BME280;67944;0.000;0.000;2023-04-24T01:42:35;99495.88;;;22.82;36.03
78625;BME280;67944;0.000;0.000;2023-04-24T01:45:02;99495.88;;;22.82;36.34
78625;BME280;67944;0.000;0.000;2023-04-24T01:47:29;99500.75;;;22.85;36.08
78625;BME280;67944;0.000;0.000;2023-04-24T01:49:55;99497.28;;;22.84;36.18
78625;BME280;67944;0.000;0.000;2023-04-24T01:52:21;99496.03;;;22.87;36.18
78625;BME280;67944;0.000;0.000;2023-04-24T01:54:46;99499.50;;;22.87;35.95
78625;BME280;67944;0.000;0.000;2023-04-24T01:57:14;99504.00;;;22.87;35.96
78625;BME280;67944;0.000;0.000;2023-04-24T01:59:40;99499.28;;;22.89;36.18
78625;BME280;67944;0.000;0.000;2023-04-24T02:02:05;99495.00;;;22.88;35.86
78625;BME280;67944;0.000;0.000;2023-04-24T02:04:31;99500.09;;;22.89;35.74
78625;BME280;67944;0.000;0.000;2023-04-24T02:06:57;99492.13;;;22.89;35.88
78625;BME280;67944;0.000;0.000;2023-04-24T02:09:22;99489.69;;;22.88;35.82
78625;BME280;67944;0.000;0.000;2023-04-24T02:11:48;99481.72;;;22.88;35.76
78625;BME280;67944;0.000;0.000;2023-04-24T02:14:13;99487.25;;;22.86;35.86
78625;BME280;67944;0.000;0.000;2023-04-24T02:16:39;99488.28;;;22.85;35.77
78625;BME280;67944;0.000;0.000;2023-04-24T02:19:04;99490.13;;;22.85;35.84
78625;BME280;67944;0.000;0.000;2023-04-24T02:21:30;99477.06;;;22.83;35.46
78625;BME280;67944;0.000;0.000;2023-04-24T02:23:57;99484.44;;;22.81;36.00
78625;BME280;67944;0.000;0.000;2023-04-24T02:26:22;99483.84;;;22.79;35.74
78625;BME280;67944;0.000;0.000;2023-04-24T02:28:48;99492.03;;;22.78;35.57
78625;BME280;67944;0.000;0.000;2023-04-24T02:31:14;99516.91;;;22.77;35.88
78625;BME280;67944;0.000;0.000;2023-04-24T02:33:39;99522.44;;;22.75;36.10
78625;BME280;67944;0.000;0.000;2023-04-24T02:36:05;99534.06;;;22.74;36.01
78625;BME280;67944;0.000;0.000;2023-04-24T02:38:30;99542.03;;;22.74;35.68
78625;BME280;67944;0.000;0.000;2023-04-24T02:40:56;99540.44;;;22.73;35.63
78625;BME280;67944;0.000;0.000;2023-04-24T02:43:21;99537.78;;;22.73;36.02
78625;BME280;67944;0.000;0.000;2023-04-24T02:45:47;99535.56;;;22.70;35.83
78625;BME280;67944;0.000;0.000;2023-04-24T02:48:13;99535.56;;;22.70;35.98
78625;BME280;67944;0.000;0.000;2023-04-24T02:50:38;99532.91;;;22.70;36.13
78625;BME280;67944;0.000;0.000;2023-04-24T02:53:04;99529.44;;;22.70;35.97
78625;BME280;67944;0.000;0.000;2023-04-24T02:55:29;99531.28;;;22.69;35.96
78625;BME280;67944;0.000;0.000;2023-04-24T02:57:55;99536.59;;;22.69;36.08
78625;BME280;67944;0.000;0.000;2023-04-24T03:00:20;99527.00;;;22.68;36.00
78625;BME280;67944;0.000;0.000;2023-04-24T03:02:46;99542.13;;;22.68;35.96
78625;BME280;67944;0.000;0.000;2023-04-24T03:05:11;99544.16;;;22.66;36.18
78625;BME280;67944;0.000;0.000;2023-04-24T03:07:37;99551.91;;;22.67;36.09
78625;BME280;67944;0.000;0.000;2023-04-24T03:10:04;99549.25;;;22.67;36.15
78625;BME280;67944;0.000;0.000;2023-04-24T03:12:31;99559.88;;;22.67;36.05
78625;BME280;67944;0.000;0.000;2023-04-24T03:14:56;99550.06;;;22.68;35.96
78625;BME280;67944;0.000;0.000;2023-04-24T03:17:22;99538.81;;;22.72;36.09
78625;BME280;67944;0.000;0.000;2023-04-24T03:19:47;99550.59;;;22.76;36.24
78625;BME280;67944;0.000;0.000;2023-04-24T03:22:12;99548.38;;;22.80;36.04
78625;BME280;67944;0.000;0.000;2023-04-24T03:24:38;99549.38;;;22.79;36.42
78625;BME280;67944;0.000;0.000;2023-04-24T03:27:03;99550.00;;;22.74;36.48
78625;BME280;67944;0.000;0.000;2023-04-24T03:29:29;99557.00;;;22.69;36.47
78625;BME280;67944;0.000;0.000;2023-04-24T03:31:54;99557.06;;;22.62;36.43
78625;BME280;67944;0.000;0.000;2023-04-24T03:34:20;99567.69;;;22.55;36.66
78625;BME280;67944;0.000;0.000;2023-04-24T03:36:45;99562.25;;;22.50;36.35
78625;BME280;67944;0.000;0.000;2023-04-24T03:39:13;99564.13;;;22.43;36.76
78625;BME280;67944;0.000;0.000;2023-04-24T03:41:38;99570.50;;;22.36;36.78
78625;BME280;67944;0.000;0.000;2023-04-24T03:44:04;99571.34;;;22.30;36.79
78625;BME280;67944;0.000;0.000;2023-04-24T03:46:29;99582.59;;;22.25;36.92
78625;BME280;67944;0.000;0.000;2023-04-24T03:48:55;99584.88;;;22.21;37.24
78625;BME280;67944;0.000;0.000;2023-04-24T03:51:20;99588.75;;;22.19;37.22
78625;BME280;67944;0.000;0.000;2023-04-24T03:53:46;99592.84;;;22.15;37.19
78625;BME280;67944;0.000;0.000;2023-04-24T03:56:11;99596.72;;;22.12;37.34
78625;BME280;67944;0.000;0.000;2023-04-24T03:58:36;99600.59;;;22.10;37.40
78625;BME280;67944;0.000;0.000;2023-04-24T04:01:02;99599.22;;;22.07;37.10
78625;BME280;67944;0.000;0.000;2023-04-24T04:03:28;99608.19;;;22.06;37.34
78625;BME280;67944;0.000;0.000;2023-04-24T04:05:53;99609.00;;;22.07;37.19
78625;BME280;67944;0.000;0.000;2023-04-24T04:08:19;99602.69;;;22.08;37.31
78625;BME280;67944;0.000;0.000;2023-04-24T04:10:45;99606.94;;;22.09;37.30
78625;BME280;67944;0.000;0.000;2023-04-24T04:13:10;99604.06;;;22.10;37.23
78625;BME280;67944;0.000;0.000;2023-04-24T04:15:36;99611.81;;;22.12;37.33
78625;BME280;67944;0.000;0.000;2023-04-24T04:18:01;99615.69;;;22.16;37.44
78625;BME280;67944;0.000;0.000;2023-04-24T04:20:27;99617.91;;;22.19;37.64
78625;BME280;67944;0.000;0.000;2023-04-24T04:22:52;99626.28;;;22.22;37.42
78625;BME280;67944;0.000;0.000;2023-04-24T04:25:18;99627.91;;;22.23;37.23
78625;BME280;67944;0.000;0.000;2023-04-24T04:27:45;99624.84;;;22.27;37.26
78625;BME280;67944;0.000;0.000;2023-04-24T04:30:13;99641.56;;;22.27;36.80
78625;BME280;67944;0.000;0.000;2023-04-24T04:32:38;99627.06;;;22.30;37.18
78625;BME280;67944;0.000;0.000;2023-04-24T04:35:04;99639.88;;;22.33;36.87
78625;BME280;67944;0.000;0.000;2023-04-24T04:37:33;99638.66;;;22.35;36.96
78625;BME280;67944;0.000;0.000;2023-04-24T04:39:59;99641.09;;;22.37;36.70
78625;BME280;67944;0.000;0.000;2023-04-24T04:42:25;99647.59;;;22.41;36.92
78625;BME280;67944;0.000;0.000;2023-04-24T04:44:50;99639.22;;;22.44;36.85
78625;BME280;67944;0.000;0.000;2023-04-24T04:47:17;99642.28;;;22.47;36.58
78625;BME280;67944;0.000;0.000;2023-04-24T04:49:43;99645.31;;;22.51;36.79
78625;BME280;67944;0.000;0.000;2023-04-24T04:52:09;99638.75;;;22.53;36.63
78625;BME280;67944;0.000;0.000;2023-04-24T04:54:34;99650.78;;;22.56;36.63
78625;BME280;67944;0.000;0.000;2023-04-24T04:57:00;99651.38;;;22.58;36.65
78625;BME280;67944;0.000;0.000;2023-04-24T04:59:27;99664.66;;;22.58;36.52
78625;BME280;67944;0.000;0.000;2023-04-24T05:01:52;99665.88;;;22.62;36.38
78625;BME280;67944;0.000;0.000;2023-04-24T05:04:18;99661.16;;;22.64;36.49
78625;BME280;67944;0.000;0.000;2023-04-24T05:06:43;99667.88;;;22.67;36.42
78625;BME280;67944;0.000;0.000;2023-04-24T05:09:09;99678.91;;;22.70;36.66
78625;BME280;67944;0.000;0.000;2023-04-24T05:11:35;99688.03;;;22.74;36.41
78625;BME280;67944;0.000;0.000;2023-04-24T05:14:00;99693.13;;;22.76;36.25
78625;BME280;67944;0.000;0.000;2023-04-24T05:16:26;99683.16;;;22.78;36.15
78625;BME280;67944;0.000;0.000;2023-04-24T05:18:51;99693.34;;;22.81;36.04
78625;BME280;67944;0.000;0.000;2023-04-24T05:21:17;99699.06;;;22.84;36.24
78625;BME280;67944;0.000;0.000;2023-04-24T05:23:43;99701.50;;;22.86;35.86
78625;BME280;67944;0.000;0.000;2023-04-24T05:26:08;99698.84;;;22.86;35.93
78625;BME280;67944;0.000;0.000;2023-04-24T05:28:33;99698.03;;;22.85;35.92
78625;BME280;67944;0.000;0.000;2023-04-24T05:31:02;99697.22;;;22.85;35.95
78625;BME280;67944;0.000;0.000;2023-04-24T05:33:27;99703.34;;;22.85;35.77
78625;BME280;67944;0.000;0.000;2023-04-24T05:35:52;99715.59;;;22.86;35.73
78625;BME280;67944;0.000;0.000;2023-04-24T05:38:18;99716.19;;;22.88;35.68
78625;BME280;67944;0.000;0.000;2023-04-24T05:40:45;99716.78;;;22.90;35.48
78625;BME280;67944;0.000;0.000;2023-04-24T05:43:11;99717.41;;;22.93;35.51
78625;BME280;67944;0.000;0.000;2023-04-24T05:45:36;99718.41;;;22.92;35.76
78625;BME280;67944;0.000;0.000;2023-04-24T05:48:02;99714.75;;;22.93;35.69
78625;BME280;67944;0.000;0.000;2023-04-24T05:50:28;99708.41;;;22.94;35.62
78625;BME280;67944;0.000;0.000;2023-04-24T05:52:54;99711.41;;;22.97;35.65
78625;BME280;67944;0.000;0.000;2023-04-24T05:55:19;99707.31;;;23.01;35.57
78625;BME280;67944;0.000;0.000;2023-04-24T05:57:45;99718.13;;;23.06;35.63
78625;BME280;67944;0.000;0.000;2023-04-24T06:00:11;99709.34;;;23.06;35.74
78625;BME280;67944;0.000;0.000;2023-04-24T06:02:38;99717.09;;;23.07;35.50
78625;BME280;67944;0.000;0.000;2023-04-24T06:05:03;99718.94;;;23.07;35.68
78625;BME280;67944;0.000;0.000;2023-04-24T06:07:30;99716.28;;;23.07;35.56
78625;BME280;67944;0.000;0.000;2023-04-24T06:09:56;99730.16;;;23.09;35.46
78625;BME280;67944;0.000;0.000;2023-04-24T06:12:22;99733.19;;;23.12;35.22
78625;BME280;67944;0.000;0.000;2023-04-24T06:14:47;99747.44;;;23.18;35.31
78625;BME280;67944;0.000;0.000;2023-04-24T06:17:15;99744.38;;;23.21;35.19
78625;BME280;67944;0.000;0.000;2023-04-24T06:19:40;99741.06;;;23.25;35.37
78625;BME280;67944;0.000;0.000;2023-04-24T06:22:05;99740.44;;;23.30;35.04
78625;BME280;67944;0.000;0.000;2023-04-24T06:24:31;99733.06;;;23.32;35.38
78625;BME280;67944;0.000;0.000;2023-04-24T06:26:57;99752.06;;;23.36;35.26
78625;BME280;67944;0.000;0.000;2023-04-24T06:29:24;99741.78;;;23.39;35.26
78625;BME280;67944;0.000;0.000;2023-04-24T06:31:49;99739.72;;;23.41;35.02
78625;BME280;67944;0.000;0.000;2023-04-24T06:34:15;99753.59;;;23.43;34.75
78625;BME280;67944;0.000;0.000;2023-04-24T06:36:41;99750.94;;;23.43;34.94
78625;BME280;67944;0.000;0.000;2023-04-24T06:39:06;99758.94;;;23.43;34.64
78625;BME280;67944;0.000;0.000;2023-04-24T06:41:32;99757.28;;;23.42;34.77
78625;BME280;67944;0.000;0.000;2023-04-24T06:43:57;99758.09;;;23.43;34.43
78625;BME280;67944;0.000;0.000;2023-04-24T06:46:23;99766.91;;;23.43;34.65
78625;BME280;67944;0.000;0.000;2023-04-24T06:48:54;99761.59;;;23.43;34.22
78625;BME280;67944;0.000;0.000;2023-04-24T06:51:23;99766.47;;;23.46;34.35
78625;BME280;67944;0.000;0.000;2023-04-24T06:53:48;99768.69;;;23.49;34.60
78625;BME280;67944;0.000;0.000;2023-04-24T06:56:15;99766.66;;;23.51;34.28
78625;BME280;67944;0.000;0.000;2023-04-24T06:58:40;99766.47;;;23.53;34.10
78625;BME280;67944;0.000;0.000;2023-04-24T07:01:06;99762.56;;;23.55;34.10
78625;BME280;67944;0.000;0.000;2023-04-24T07:03:31;99769.13;;;23.53;34.07
78625;BME280;67944;0.000;0.000;2023-04-24T07:05:57;99770.75;;;23.47;33.94
78625;BME280;67944;0.000;0.000;2023-04-24T07:08:23;99764.66;;;23.40;33.84
78625;BME280;67944;0.000;0.000;2023-04-24T07:10:50;99769.41;;;23.38;33.89
78625;BME280;67944;0.000;0.000;2023-04-24T07:13:16;99765.94;;;23.38;33.97
78625;BME280;67944;0.000;0.000;2023-04-24T07:15:42;99775.50;;;23.39;33.96
78625;BME280;67944;0.000;0.000;2023-04-24T07:18:07;99771.63;;;23.41;33.81
78625;BME280;67944;0.000;0.000;2023-04-24T07:20:33;99776.72;;;23.43;34.10
78625;BME280;67944;0.000;0.000;2023-04-24T07:22:59;99778.13;;;23.45;33.46
78625;BME280;67944;0.000;0.000;2023-04-24T07:25:25;99773.41;;;23.47;33.93
78625;BME280;67944;0.000;0.000;2023-04-24T07:27:50;99770.31;;;23.50;33.44
78625;BME280;67944;0.000;0.000;2023-04-24T07:30:16;99779.75;;;23.53;33.89
78625;BME280;67944;0.000;0.000;2023-04-24T07:32:41;99775.03;;;23.55;33.71
78625;BME280;67944;0.000;0.000;2023-04-24T07:35:07;99774.00;;;23.56;33.52
78625;BME280;67944;0.000;0.000;2023-04-24T07:37:32;99769.28;;;23.58;33.61
78625;BME280;67944;0.000;0.000;2023-04-24T07:39:58;99765.34;;;23.61;33.86
78625;BME280;67944;0.000;0.000;2023-04-24T07:42:23;99781.91;;;23.63;33.34
78625;BME280;67944;0.000;0.000;2023-04-24T07:44:49;99768.19;;;23.66;33.37
78625;BME280;67944;0.000;0.000;2023-04-24T07:47:17;99769.81;;;23.67;33.47
78625;BME280;67944;0.000;0.000;2023-04-24T07:49:42;99777.38;;;23.70;33.57
78625;BME280;67944;0.000;0.000;2023-04-24T07:52:08;99785.13;;;23.71;33.26
78625;BME280;67944;0.000;0.000;2023-04-24T07:54:34;99785.72;;;23.73;33.55
78625;BME280;67944;0.000;0.000;2023-04-24T07:56:59;99779.97;;;23.76;33.01
78625;BME280;67944;0.000;0.000;2023-04-24T07:59:26;99788.56;;;23.78;33.18
78625;BME280;67944;0.000;0.000;2023-04-24T08:01:51;99803.25;;;23.81;33.44
78625;BME280;67944;0.000;0.000;2023-04-24T08:04:17;99796.66;;;23.83;33.30
78625;BME280;67944;0.000;0.000;2023-04-24T08:06:43;99802.59;;;23.85;33.15
78625;BME280;67944;0.000;0.000;2023-04-24T08:09:09;99804.81;;;23.88;32.53
78625;BME280;67944;0.000;0.000;2023-04-24T08:11:34;99801.94;;;23.90;33.00
78625;BME280;67944;0.000;0.000;2023-04-24T08:13:59;99799.88;;;23.92;32.88
78625;BME280;67944;0.000;0.000;2023-04-24T08:16:25;99802.31;;;23.93;32.42
78625;BME280;67944;0.000;0.000;2023-04-24T08:18:52;99795.97;;;23.95;32.81
78625;BME280;67944;0.000;0.000;2023-04-24T08:21:18;99804.34;;;23.98;32.44
78625;BME280;67944;0.000;0.000;2023-04-24T08:23:45;99816.59;;;23.99;32.82
78625;BME280;67944;0.000;0.000;2023-04-24T08:26:11;99816.16;;;24.02;32.24
78625;BME280;67944;0.000;0.000;2023-04-24T08:28:37;99801.84;;;24.03;32.40
78625;BME280;67944;0.000;0.000;2023-04-24T08:31:03;99810.38;;;24.05;32.20
78625;BME280;67944;0.000;0.000;2023-04-24T08:33:28;99811.19;;;24.06;32.82
78625;BME280;67944;0.000;0.000;2023-04-24T08:36:00;99829.38;;;24.09;32.15
78625;BME280;67944;0.000;0.000;2023-04-24T08:38:26;99826.50;;;24.10;32.11
78625;BME280;67944;0.000;0.000;2023-04-24T08:40:52;99824.44;;;24.12;32.24
78625;BME280;67944;0.000;0.000;2023-04-24T08:43:21;99824.03;;;24.15;32.19
78625;BME280;67944;0.000;0.000;2023-04-24T08:45:47;99828.31;;;24.16;32.04
78625;BME280;67944;0.000;0.000;2023-04-24T08:48:13;99836.88;;;24.18;31.87
78625;BME280;67944;0.000;0.000;2023-04-24T08:50:40;99850.78;;;24.20;32.11
78625;BME280;67944;0.000;0.000;2023-04-24T08:53:08;99844.44;;;24.21;32.15
78625;BME280;67944;0.000;0.000;2023-04-24T08:55:34;99851.19;;;24.24;31.30
78625;BME280;67944;0.000;0.000;2023-04-24T08:58:01;99848.53;;;24.24;31.48
78625;BME280;67944;0.000;0.000;2023-04-24T09:00:28;99858.34;;;24.23;31.61
78625;BME280;67944;0.000;0.000;2023-04-24T09:02:54;99863.06;;;24.21;31.17
78625;BME280;67944;0.000;0.000;2023-04-24T09:05:21;99859.22;;;24.17;31.25
78625;BME280;67944;0.000;0.000;2023-04-24T09:07:54;99866.38;;;24.17;30.94
78625;BME280;67944;0.000;0.000;2023-04-24T09:10:22;99862.91;;;24.16;31.26
78625;BME280;67944;0.000;0.000;2023-04-24T09:12:47;99873.53;;;24.16;30.45
78625;BME280;67944;0.000;0.000;2023-04-24T09:15:13;99882.13;;;24.18;30.45
78625;BME280;67944;0.000;0.000;2023-04-24T09:17:38;99889.06;;;24.19;30.70
78625;BME280;67944;0.000;0.000;2023-04-24T09:20:05;99889.66;;;24.21;31.07
78625;BME280;67944;0.000;0.000;2023-04-24T09:22:31;99893.16;;;24.22;30.71
78625;BME280;67944;0.000;0.000;2023-04-24T09:25:05;99882.28;;;24.23;30.79
78625;BME280;67944;0.000;0.000;2023-04-24T09:27:32;99889.28;;;24.24;30.28
78625;BME280;67944;0.000;0.000;2023-04-24T09:29:59;99889.28;;;24.24;30.20
78625;BME280;67944;0.000;0.000;2023-04-24T09:32:25;99890.88;;;24.25;30.11
78625;BME280;67944;0.000;0.000;2023-04-24T09:35:12;99893.53;;;24.25;29.92
78625;BME280;67944;0.000;0.000;2023-04-24T09:37:41;99896.19;;;24.25;29.79
78625;BME280;67944;0.000;0.000;2023-04-24T09:40:18;99900.47;;;24.26;29.86
78625;BME280;67944;0.000;0.000;2023-04-24T09:43:02;99903.97;;;24.27;30.08
78625;BME280;67944;0.000;0.000;2023-04-24T09:45:38;99910.09;;;24.27;30.14
78625;BME280;67944;0.000;0.000;2023-04-24T09:48:04;99908.03;;;24.30;29.53
78625;BME280;67944;0.000;0.000;2023-04-24T09:50:31;99914.19;;;24.30;29.80
78625;BME280;67944;0.000;0.000;2023-04-24T09:53:04;99913.97;;;24.32;30.11
78625;BME280;67944;0.000;0.000;2023-04-24T09:55:31;99910.91;;;24.28;30.36
78625;BME280;67944;0.000;0.000;2023-04-24T09:58:00;99927.53;;;24.23;30.08
78625;BME280;67944;0.000;0.000;2023-04-24T10:00:31;99921.59;;;24.21;30.22
78625;BME280;67944;0.000;0.000;2023-04-24T10:05:34;99947.81;;;24.24;29.89
78625;BME280;67944;0.000;0.000;2023-04-24T10:08:11;99943.50;;;24.23;30.52
78625;BME280;67944;0.000;0.000;2023-04-24T10:10:40;99948.00;;;24.23;29.54
78625;BME280;67944;0.000;0.000;2023-04-24T10:13:08;99955.38;;;24.21;29.53
78625;BME280;67944;0.000;0.000;2023-04-24T10:15:34;99949.03;;;24.22;30.17
78625;BME280;67944;0.000;0.000;2023-04-24T10:18:00;99947.81;;;24.24;29.88
78625;BME280;67944;0.000;0.000;2023-04-24T10:20:28;99958.00;;;24.27;29.88
78625;BME280;67944;0.000;0.000;2023-04-24T10:22:56;99955.13;;;24.29;29.79
78625;BME280;67944;0.000;0.000;2023-04-24T10:25:25;99961.03;;;24.31;30.14
78625;BME280;67944;0.000;0.000;2023-04-24T10:27:52;99957.56;;;24.31;29.43
78625;BME280;67944;0.000;0.000;2023-04-24T10:30:19;99958.16;;;24.33;30.14
78625;BME280;67944;0.000;0.000;2023-04-24T10:32:45;99951.81;;;24.34;29.65
78625;BME280;67944;0.000;0.000;2023-04-24T10:35:13;99952.41;;;24.36;29.97
78625;BME280;67944;0.000;0.000;2023-04-24T10:37:54;99952.63;;;24.34;30.09
78625;BME280;67944;0.000;0.000;2023-04-24T10:40:27;99954.69;;;24.32;29.90
78625;BME280;67944;0.000;0.000;2023-04-24T10:42:53;99958.38;;;24.31;30.02
78625;BME280;67944;0.000;0.000;2023-04-24T10:45:20;99957.13;;;24.34;29.58
78625;BME280;67944;0.000;0.000;2023-04-24T10:48:05;99964.69;;;24.37;29.42
78625;BME280;67944;0.000;0.000;2023-04-24T10:50:47;99961.00;;;24.38;29.59
78625;BME280;67944;0.000;0.000;2023-04-24T10:53:19;99965.72;;;24.36;29.50
78625;BME280;67944;0.000;0.000;2023-04-24T10:56:06;99968.00;;;24.32;29.78
78625;BME280;67944;0.000;0.000;2023-04-24T10:58:42;99970.88;;;24.31;29.76
78625;BME280;67944;0.000;0.000;2023-04-24T11:01:29;99980.50;;;24.32;29.89
78625;BME280;67944;0.000;0.000;2023-04-24T11:04:03;99969.63;;;24.33;29.39
78625;BME280;67944;0.000;0.000;2023-04-24T11:06:33;99973.94;;;24.34;29.65
78625;BME280;67944;0.000;0.000;2023-04-24T11:09:08;99965.13;;;24.34;29.96
78625;BME280;67944;0.000;0.000;2023-04-24T11:11:38;99968.38;;;24.36;29.68
78625;BME280;67944;0.000;0.000;2023-04-24T11:14:09;99974.53;;;24.36;29.60
78625;BME280;67944;0.000;0.000;2023-04-24T11:19:09;99967.34;;;24.37;29.99
78625;BME280;67944;0.000;0.000;2023-04-24T11:26:51;99968.38;;;24.36;30.04
78625;BME280;67944;0.000;0.000;2023-04-24T11:29:20;99964.09;;;24.35;29.73
78625;BME280;67944;0.000;0.000;2023-04-24T11:31:46;99975.34;;;24.37;29.82
78625;BME280;67944;0.000;0.000;2023-04-24T11:34:18;99981.47;;;24.37;30.13
78625;BME280;67944;0.000;0.000;2023-04-24T11:36:45;99975.34;;;24.37;29.61
78625;BME280;67944;0.000;0.000;2023-04-24T11:39:11;99978.00;;;24.37;30.54
78625;BME280;67944;0.000;0.000;2023-04-24T11:41:37;99969.00;;;24.38;30.74
78625;BME280;67944;0.000;0.000;2023-04-24T11:44:06;99975.94;;;24.39;30.35
78625;BME280;67944;0.000;0.000;2023-04-24T11:46:32;99973.88;;;24.41;30.80
78625;BME280;67944;0.000;0.000;2023-04-24T11:48:58;99982.69;;;24.41;30.21
78625;BME280;67944;0.000;0.000;2023-04-24T11:51:26;99978.19;;;24.42;29.95
78625;BME280;67944;0.000;0.000;2023-04-24T11:53:53;99987.78;;;24.43;30.48
78625;BME280;67944;0.000;0.000;2023-04-24T11:56:21;99982.47;;;24.43;30.00
78625;BME280;67944;0.000;0.000;2023-04-24T11:58:47;99986.75;;;24.44;30.52
78625;BME280;67944;0.000;0.000;2023-04-24T12:01:13;99984.09;;;24.44;30.23
78625;BME280;67944;0.000;0.000;2023-04-24T12:03:39;99982.03;;;24.46;30.06
78625;BME280;67944;0.000;0.000;2023-04-24T12:06:05;99987.13;;;24.47;30.29
78625;BME280;67944;0.000;0.000;2023-04-24T12:08:32;99986.91;;;24.49;30.10
78625;BME280;67944;0.000;0.000;2023-04-24T12:11:00;99983.00;;;24.51;30.36
78625;BME280;67944;0.000;0.000;2023-04-24T12:13:26;99984.41;;;24.54;30.12
78625;BME280;67944;0.000;0.000;2023-04-24T12:15:52;99993.00;;;24.56;30.00
78625;BME280;67944;0.000;0.000;2023-04-24T12:18:18;99988.28;;;24.58;30.27
78625;BME280;67944;0.000;0.000;2023-04-24T12:20:43;99983.53;;;24.60;30.95
78625;BME280;67944;0.000;0.000;2023-04-24T12:23:09;99990.50;;;24.61;30.74
78625;BME280;67944;0.000;0.000;2023-04-24T12:25:34;99988.66;;;24.62;30.10
78625;BME280;67944;0.000;0.000;2023-04-24T12:30:30;99998.88;;;24.65;30.52
78625;BME280;67944;0.000;0.000;2023-04-24T12:32:58;99996.00;;;24.66;30.77
78625;BME280;67944;0.000;0.000;2023-04-24T12:35:27;100000.03;;;24.69;30.40
78625;BME280;67944;0.000;0.000;2023-04-24T12:37:53;99994.50;;;24.70;30.51
78625;BME280;67944;0.000;0.000;2023-04-24T12:40:20;99995.53;;;24.69;30.14
78625;BME280;67944;0.000;0.000;2023-04-24T12:42:47;99985.94;;;24.68;30.36
78625;BME280;67944;0.000;0.000;2023-04-24T12:45:14;100001.69;;;24.70;30.27
78625;BME280;67944;0.000;0.000;2023-04-24T12:47:41;99996.13;;;24.71;30.48
78625;BME280;67944;0.000;0.000;2023-04-24T12:50:09;99984.22;;;24.74;29.51
78625;BME280;67944;0.000;0.000;2023-04-24T12:52:36;99987.50;;;24.76;29.44
78625;BME280;67944;0.000;0.000;2023-04-24T12:55:02;100007.97;;;24.75;29.92
78625;BME280;67944;0.000;0.000;2023-04-24T12:57:29;99998.97;;;24.76;29.98
78625;BME280;67944;0.000;0.000;2023-04-24T12:59:56;100007.16;;;24.75;28.87
78625;BME280;67944;0.000;0.000;2023-04-24T13:02:23;100003.69;;;24.74;29.42
78625;BME280;67944;0.000;0.000;2023-04-24T13:04:49;100003.53;;;24.69;29.32
78625;BME280;67944;0.000;0.000;2023-04-24T13:07:15;100013.00;;;24.65;28.92
78625;BME280;67944;0.000;0.000;2023-04-24T13:09:41;100002.78;;;24.62;29.35
78625;BME280;67944;0.000;0.000;2023-04-24T13:12:07;100013.66;;;24.60;28.95
78625;BME280;67944;0.000;0.000;2023-04-24T13:14:34;100003.44;;;24.57;29.21
78625;BME280;67944;0.000;0.000;2023-04-24T13:16:59;100012.28;;;24.51;29.15
78625;BME280;67944;0.000;0.000;2023-04-24T13:19:26;100007.03;;;24.45;28.82